createdAt,value
2023-02-02T00:01:55.378Z,82.79
2023-02-02T00:04:26.837Z,82.98
2023-02-02T00:06:57.092Z,82.87
2023-02-02T00:09:29.569Z,83.27
2023-02-02T00:12:00.427Z,83.30
2023-02-02T00:14:30.020Z,83.11
2023-02-02T00:16:59.305Z,82.43
2023-02-02T00:19:30.940Z,82.71
2023-02-02T00:22:00.276Z,83.32
2023-02-02T00:24:29.538Z,82.87
2023-02-02T00:27:00.091Z,83.29
2023-02-02T00:29:31.361Z,83.11
2023-02-02T00:32:00.614Z,82.70
2023-02-02T00:34:31.042Z,82.35
2023-02-02T00:37:00.173Z,82.55
2023-02-02T00:39:30.606Z,82.52
2023-02-02T00:41:59.870Z,82.32
2023-02-02T00:44:48.358Z,82.41
2023-02-02T00:47:19.473Z,83.00
2023-02-02T00:49:48.738Z,83.35
2023-02-02T00:52:18.149Z,83.07
2023-02-02T00:54:47.192Z,82.76
2023-02-02T00:57:16.977Z,82.48
2023-02-02T00:59:46.269Z,82.21
2023-02-02T01:02:15.589Z,82.10
2023-02-02T01:04:45.041Z,82.15
2023-02-02T01:07:14.211Z,82.12
2023-02-02T01:09:43.552Z,82.45
2023-02-02T01:12:12.825Z,82.05
2023-02-02T01:14:42.086Z,81.99
2023-02-02T01:17:11.155Z,81.59
2023-02-02T01:19:40.897Z,81.49
2023-02-02T01:22:10.197Z,81.43
2023-02-02T01:24:39.392Z,81.39
2023-02-02T01:27:08.593Z,81.77
2023-02-02T01:29:38.152Z,81.94
2023-02-02T01:32:08.026Z,81.81
2023-02-02T01:34:41.406Z,81.64
2023-02-02T01:37:11.496Z,81.39
2023-02-02T01:39:40.008Z,81.31
2023-02-02T01:42:15.618Z,81.24
2023-02-02T01:45:14.491Z,81.06
2023-02-02T01:47:52.459Z,80.80
2023-02-02T01:50:25.254Z,81.29
2023-02-02T01:52:57.460Z,81.03
2023-02-02T01:55:31.121Z,81.04
2023-02-02T01:58:05.390Z,80.63
2023-02-02T02:00:35.192Z,80.76
2023-02-02T02:03:09.264Z,80.35
2023-02-02T02:05:44.774Z,80.48
2023-02-02T02:08:18.149Z,80.43
2023-02-02T02:10:47.918Z,80.81
2023-02-02T02:13:18.648Z,80.64
2023-02-02T02:16:21.176Z,80.40
2023-02-02T02:19:12.239Z,79.66
2023-02-02T02:22:19.867Z,79.72
2023-02-02T02:25:41.113Z,79.70
2023-02-02T02:28:54.841Z,79.39
2023-02-02T02:31:59.347Z,78.74
2023-02-02T02:34:42.502Z,78.57
2023-02-02T02:37:23.232Z,78.77
2023-02-02T02:39:57.592Z,78.56
2023-02-02T02:42:30.632Z,77.96
2023-02-02T02:45:04.069Z,78.12
2023-02-02T02:47:34.789Z,77.50
2023-02-02T02:50:05.341Z,77.59
2023-02-02T02:52:36.644Z,77.58
2023-02-02T02:55:11.083Z,77.10
2023-02-02T02:57:54.324Z,76.74
2023-02-02T03:00:41.528Z,76.74
2023-02-02T03:03:19.775Z,76.66
2023-02-02T03:05:54.390Z,76.95
2023-02-02T03:08:30.154Z,76.93
2023-02-02T03:11:01.877Z,77.13
2023-02-02T03:13:32.231Z,77.06
2023-02-02T03:16:02.127Z,76.69
2023-02-02T03:18:32.855Z,76.41
2023-02-02T03:21:02.257Z,76.32
2023-02-02T03:23:31.662Z,76.55
2023-02-02T03:26:00.789Z,76.82
2023-02-02T03:28:31.081Z,76.78
2023-02-02T03:31:02.412Z,76.88
2023-02-02T03:33:35.629Z,76.88
2023-02-02T03:36:05.065Z,76.67
2023-02-02T03:38:33.945Z,76.46
2023-02-02T03:41:03.144Z,76.82
2023-02-02T03:43:32.054Z,76.98
2023-02-02T03:46:03.648Z,77.14
2023-02-02T03:48:34.801Z,77.04
2023-02-02T03:51:07.844Z,76.98
2023-02-02T03:53:37.291Z,76.98
2023-02-02T03:56:07.354Z,76.73
2023-02-02T03:58:35.526Z,76.70
2023-02-02T04:01:06.989Z,76.84
2023-02-02T04:03:36.591Z,76.90
2023-02-02T04:06:06.258Z,76.96
2023-02-02T04:08:35.607Z,77.21
2023-02-02T04:11:04.857Z,76.93
2023-02-02T04:13:34.164Z,76.84
2023-02-02T04:16:03.590Z,76.23
2023-02-02T04:18:32.601Z,76.40
2023-02-02T04:21:02.043Z,76.04
2023-02-02T04:23:31.424Z,76.10
2023-02-02T04:26:01.568Z,75.62
2023-02-02T04:28:29.781Z,75.97
2023-02-02T04:30:59.045Z,76.13
2023-02-02T04:33:29.276Z,76.17
2023-02-02T04:35:57.430Z,75.85
2023-02-02T04:38:26.669Z,75.17
2023-02-02T04:40:55.736Z,74.65
2023-02-02T04:43:24.891Z,74.67
2023-02-02T04:45:57.620Z,74.19
2023-02-02T04:48:26.953Z,74.24
2023-02-02T04:51:00.575Z,74.08
2023-02-02T04:53:30.262Z,74.26
2023-02-02T04:56:04.627Z,74.49
2023-02-02T04:58:33.919Z,74.23
2023-02-02T05:01:07.844Z,73.97
2023-02-02T05:03:36.875Z,73.63
2023-02-02T05:06:07.058Z,73.31
2023-02-02T05:08:36.810Z,72.88
2023-02-02T05:11:09.064Z,72.74
2023-02-02T05:13:38.279Z,72.76
2023-02-02T05:16:08.628Z,73.05
2023-02-02T05:18:37.760Z,73.09
2023-02-02T05:21:07.097Z,73.06
2023-02-02T05:23:36.971Z,73.25
2023-02-02T05:26:05.817Z,73.05
2023-02-02T05:28:35.118Z,72.59
2023-02-02T05:31:07.677Z,72.35
2023-02-02T05:33:36.781Z,71.74
2023-02-02T05:36:07.980Z,71.65
2023-02-02T05:38:37.145Z,71.53
2023-02-02T05:41:07.319Z,71.46
2023-02-02T05:43:36.722Z,71.84
2023-02-02T05:46:05.895Z,72.20
2023-02-02T05:48:35.467Z,71.82
2023-02-02T05:51:10.654Z,71.57
2023-02-02T05:53:39.953Z,71.23
2023-02-02T05:56:09.264Z,70.89
2023-02-02T05:58:38.612Z,70.42
2023-02-02T06:01:08.013Z,70.08
2023-02-02T06:03:37.273Z,69.52
2023-02-02T06:06:07.393Z,70.20
2023-02-02T06:08:35.718Z,69.83
2023-02-02T06:11:11.071Z,69.12
2023-02-02T06:13:40.912Z,68.88
2023-02-02T06:16:10.430Z,68.99
2023-02-02T06:18:39.828Z,68.82
2023-02-02T06:21:10.112Z,68.75
2023-02-02T06:23:43.119Z,69.03
2023-02-02T06:26:13.792Z,69.16
2023-02-02T06:28:43.981Z,68.75
2023-02-02T06:31:13.226Z,68.47
2023-02-02T06:33:42.683Z,68.48
2023-02-02T06:36:15.192Z,68.63
2023-02-02T06:38:50.803Z,68.42
2023-02-02T06:41:20.838Z,68.50
2023-02-02T06:43:51.864Z,68.71
2023-02-02T06:46:20.922Z,68.63
2023-02-02T06:48:51.601Z,68.36
2023-02-02T06:51:20.984Z,68.55
2023-02-02T06:53:50.376Z,68.64
2023-02-02T06:56:19.898Z,68.69
2023-02-02T06:58:49.644Z,68.88
2023-02-02T07:01:20.223Z,69.17
2023-02-02T07:03:50.867Z,69.00
2023-02-02T07:06:22.463Z,68.97
2023-02-02T07:09:01.856Z,68.47
2023-02-02T07:11:37.238Z,67.94
2023-02-02T07:14:09.257Z,68.24
2023-02-02T07:16:38.525Z,68.36
2023-02-02T07:19:08.502Z,68.92
2023-02-02T07:21:38.268Z,68.31
2023-02-02T07:24:08.717Z,68.11
2023-02-02T07:26:38.618Z,68.08
2023-02-02T07:29:07.999Z,68.31
2023-02-02T07:31:37.280Z,68.14
2023-02-02T07:34:06.552Z,68.17
2023-02-02T07:36:35.914Z,68.15
2023-02-02T07:39:07.138Z,67.87
2023-02-02T07:41:37.662Z,67.84
2023-02-02T07:44:16.553Z,67.72
2023-02-02T07:46:51.430Z,67.53
2023-02-02T07:49:19.870Z,68.01
2023-02-02T07:51:49.390Z,68.27
2023-02-02T07:54:18.181Z,68.36
2023-02-02T07:56:47.244Z,68.05
2023-02-02T07:59:16.783Z,68.24
2023-02-02T08:01:46.824Z,67.88
2023-02-02T08:04:16.067Z,68.37
2023-02-02T08:06:47.737Z,68.32
2023-02-02T08:09:22.673Z,67.90
2023-02-02T08:11:52.091Z,68.18
2023-02-02T08:14:24.047Z,68.08
2023-02-02T08:16:53.535Z,68.19
2023-02-02T08:19:23.134Z,68.25
2023-02-02T08:22:04.268Z,68.54
2023-02-02T08:24:42.431Z,69.43
2023-02-02T08:27:11.535Z,68.84
2023-02-02T08:29:40.436Z,69.16
2023-02-02T08:32:10.643Z,69.30
2023-02-02T08:34:40.457Z,69.54
2023-02-02T08:37:10.905Z,69.46
2023-02-02T08:39:39.797Z,69.95
2023-02-02T08:42:09.243Z,70.99
2023-02-02T08:46:13.247Z,71.45
2023-02-02T08:47:39.835Z,71.61
2023-02-02T08:50:12.781Z,71.61
2023-02-02T08:52:42.039Z,71.79
2023-02-02T08:55:11.635Z,71.88
2023-02-02T08:57:41.443Z,72.07
2023-02-02T09:00:13.473Z,71.36
2023-02-02T09:02:42.555Z,71.02
2023-02-02T09:05:24.726Z,70.88
2023-02-02T09:07:58.165Z,71.08
2023-02-02T09:10:27.609Z,71.04
2023-02-02T09:12:57.325Z,71.65
2023-02-02T09:15:27.554Z,71.88
2023-02-02T09:17:57.104Z,72.14
2023-02-02T09:20:26.562Z,72.31
2023-02-02T09:22:57.048Z,72.65
2023-02-02T09:25:27.279Z,72.35
2023-02-02T09:27:57.019Z,71.90
2023-02-02T09:30:26.371Z,72.35
2023-02-02T09:32:55.521Z,73.05
2023-02-02T09:35:26.624Z,73.85
2023-02-02T09:37:56.121Z,74.14
2023-02-02T09:40:27.382Z,74.36
2023-02-02T09:43:06.751Z,74.08
2023-02-02T09:45:55.563Z,74.25
2023-02-02T09:48:35.052Z,74.30
2023-02-02T09:51:12.440Z,74.41
2023-02-02T09:53:55.278Z,74.13
2023-02-02T09:56:32.952Z,73.93
2023-02-02T09:59:18.754Z,73.34
2023-02-02T10:01:55.038Z,73.17
2023-02-02T10:04:30.246Z,72.79
2023-02-02T10:07:07.776Z,73.07
2023-02-02T10:09:43.874Z,73.37
2023-02-02T10:12:30.155Z,73.38
2023-02-02T10:15:12.079Z,72.88
2023-02-02T10:17:46.792Z,72.67
2023-02-02T10:20:42.361Z,72.25
2023-02-02T10:23:24.808Z,72.93
2023-02-02T10:25:57.646Z,73.46
2023-02-02T10:28:45.246Z,73.51
2023-02-02T10:31:24.396Z,73.88
2023-02-02T10:34:07.677Z,73.80
2023-02-02T10:36:54.066Z,73.83
2023-02-02T10:39:36.731Z,73.63
2023-02-02T10:42:20.557Z,73.76
2023-02-02T10:44:56.361Z,73.48
2023-02-02T10:47:29.861Z,74.01
2023-02-02T10:50:18.129Z,74.07
2023-02-02T10:52:52.347Z,74.03
2023-02-02T10:55:42.038Z,74.12
2023-02-02T10:58:29.539Z,74.13
2023-02-02T11:01:03.102Z,74.11
2023-02-02T11:03:34.485Z,74.53
2023-02-02T11:06:25.187Z,74.98
2023-02-02T11:09:01.581Z,74.73
2023-02-02T11:11:33.126Z,75.11
2023-02-02T11:14:11.932Z,74.37
2023-02-02T11:16:44.796Z,73.83
2023-02-02T11:19:29.063Z,73.25
2023-02-02T11:21:59.281Z,72.73
2023-02-02T11:24:30.842Z,72.57
2023-02-02T11:27:03.680Z,73.41
2023-02-02T11:29:40.885Z,74.58
2023-02-02T11:32:26.110Z,75.48
2023-02-02T11:35:18.651Z,75.82
2023-02-02T11:37:57.396Z,75.68
2023-02-02T11:40:33.125Z,75.45
2023-02-02T11:43:07.141Z,75.24
2023-02-02T11:45:39.933Z,74.88
2023-02-02T11:48:19.261Z,74.82
2023-02-02T11:50:57.842Z,73.75
2023-02-02T11:53:34.589Z,73.57
2023-02-02T11:56:09.703Z,72.92
2023-02-02T11:58:47.409Z,72.61
2023-02-02T12:01:34.275Z,72.17
2023-02-02T12:04:23.233Z,72.52
2023-02-02T12:06:52.450Z,72.30
2023-02-02T12:09:32.815Z,71.71
2023-02-02T12:12:12.236Z,72.62
2023-02-02T12:14:54.252Z,72.00
2023-02-02T12:17:43.853Z,71.59
2023-02-02T12:20:36.359Z,71.03
2023-02-02T12:23:17.741Z,70.80
2023-02-02T12:26:03.021Z,70.69
2023-02-02T12:29:00.290Z,70.71
2023-02-02T12:31:40.250Z,69.73
2023-02-02T12:34:23.318Z,70.55
2023-02-02T12:37:03.752Z,70.69
2023-02-02T12:39:45.550Z,70.91
2023-02-02T12:42:41.213Z,70.21
2023-02-02T12:45:35.616Z,69.49
2023-02-02T12:48:25.000Z,69.35
2023-02-02T12:51:07.200Z,69.81
2023-02-02T12:54:32.773Z,70.46
2023-02-02T12:56:49.711Z,71.43
2023-02-02T12:59:27.772Z,72.32
2023-02-02T13:02:05.278Z,72.87
2023-02-02T13:04:55.940Z,73.47
2023-02-02T13:07:50.756Z,74.65
2023-02-02T13:10:30.236Z,75.28
2023-02-02T13:13:07.814Z,75.04
2023-02-02T13:15:40.763Z,75.94
2023-02-02T13:18:15.081Z,76.04
2023-02-02T13:20:48.106Z,76.62
2023-02-02T13:23:22.149Z,76.90
2023-02-02T13:25:55.554Z,77.16
2023-02-02T13:28:37.011Z,77.53
2023-02-02T13:31:15.452Z,77.13
2023-02-02T13:33:50.728Z,77.02
2023-02-02T13:36:29.084Z,77.26
2023-02-02T13:39:02.130Z,78.10
2023-02-02T13:41:32.249Z,78.02
2023-02-02T13:44:08.613Z,77.94
2023-02-02T13:46:45.934Z,77.95
2023-02-02T13:49:19.828Z,77.69
2023-02-02T13:51:55.812Z,77.74
2023-02-02T13:54:39.019Z,78.24
2023-02-02T13:57:21.542Z,78.25
2023-02-02T14:00:00.450Z,78.39
2023-02-02T14:02:33.668Z,74.56
2023-02-02T14:05:05.329Z,71.57
2023-02-02T14:07:42.078Z,68.83
2023-02-02T14:10:25.217Z,63.04
2023-02-02T14:12:55.913Z,64.19
2023-02-02T14:15:39.689Z,66.49
2023-02-02T14:18:09.187Z,65.68
2023-02-02T14:20:54.319Z,67.49
2023-02-02T14:23:51.923Z,67.96
2023-02-02T14:26:41.905Z,68.85
2023-02-02T14:29:38.957Z,69.61
2023-02-02T14:32:34.287Z,69.47
2023-02-02T14:35:35.223Z,69.92
2023-02-02T14:38:08.883Z,70.68
2023-02-02T14:40:53.371Z,71.22
2023-02-02T14:43:45.753Z,71.92
2023-02-02T14:46:34.647Z,72.87
2023-02-02T14:49:34.761Z,73.18
2023-02-02T14:52:05.467Z,73.09
2023-02-02T14:54:42.792Z,73.13
2023-02-02T14:57:27.562Z,73.10
2023-02-02T15:00:01.197Z,73.71
2023-02-02T15:02:36.451Z,74.18
2023-02-02T15:05:43.348Z,73.83
2023-02-02T15:08:28.112Z,74.47
2023-02-02T15:11:21.949Z,73.78
2023-02-02T15:13:57.721Z,73.58
2023-02-02T15:16:31.187Z,73.57
2023-02-02T15:19:14.339Z,73.87
2023-02-02T15:21:48.222Z,73.78
2023-02-02T15:24:27.763Z,73.71
2023-02-02T15:26:59.948Z,73.51
2023-02-02T15:29:42.190Z,73.47
2023-02-02T15:32:25.615Z,74.03
2023-02-02T15:35:06.159Z,74.12
2023-02-02T15:37:41.793Z,73.78
2023-02-02T15:40:16.381Z,74.78
2023-02-02T15:42:55.111Z,75.50
2023-02-02T15:45:49.715Z,75.17
2023-02-02T15:48:29.435Z,75.62
2023-02-02T15:51:01.054Z,75.40
2023-02-02T15:53:45.011Z,75.49
2023-02-02T15:56:29.096Z,76.28
2023-02-02T15:58:59.759Z,76.23
2023-02-02T16:01:33.771Z,76.35
2023-02-02T16:04:21.971Z,76.59
2023-02-02T16:06:51.536Z,76.81
2023-02-02T16:09:26.534Z,77.05
2023-02-02T16:11:55.729Z,76.36
2023-02-02T16:14:24.728Z,76.61
2023-02-02T16:16:53.825Z,76.60
2023-02-02T16:19:25.199Z,76.58
2023-02-02T16:21:58.328Z,76.10
2023-02-02T16:24:32.107Z,77.02
2023-02-02T16:27:05.814Z,76.78
2023-02-02T16:29:35.720Z,76.68
2023-02-02T16:32:05.201Z,76.60
2023-02-02T16:34:48.428Z,76.52
2023-02-02T16:37:24.847Z,76.34
2023-02-02T16:39:54.920Z,76.33
2023-02-02T16:42:25.338Z,76.00
2023-02-02T16:44:55.415Z,75.94
2023-02-02T16:47:44.253Z,76.09
2023-02-02T16:50:28.306Z,76.38
2023-02-02T16:53:01.462Z,76.50
2023-02-02T16:55:47.783Z,76.07
2023-02-02T16:58:23.488Z,76.27
2023-02-02T17:01:13.546Z,75.94
2023-02-02T17:03:49.330Z,75.88
2023-02-02T17:06:25.347Z,75.79
2023-02-02T17:08:54.444Z,75.61
2023-02-02T17:11:26.612Z,75.57
2023-02-02T17:13:56.421Z,75.51
2023-02-02T17:16:26.009Z,76.16
2023-02-02T17:18:54.672Z,76.41
2023-02-02T17:21:25.660Z,76.24
2023-02-02T17:23:54.933Z,76.49
2023-02-02T17:26:24.201Z,76.23
2023-02-02T17:28:56.705Z,76.10
2023-02-02T17:31:25.946Z,75.88
2023-02-02T17:33:55.334Z,75.75
2023-02-02T17:36:24.507Z,75.93
2023-02-02T17:38:54.132Z,75.64
2023-02-02T17:41:23.011Z,75.99
2023-02-02T17:43:52.160Z,76.25
2023-02-02T17:46:22.110Z,76.10
2023-02-02T17:48:51.421Z,76.05
2023-02-02T17:51:20.280Z,76.09
2023-02-02T17:53:49.890Z,75.71
2023-02-02T17:56:21.369Z,75.80
2023-02-02T17:58:50.492Z,75.62
2023-02-02T18:01:20.115Z,75.42
2023-02-02T18:03:50.307Z,75.81
2023-02-02T18:06:19.642Z,76.03
2023-02-02T18:08:48.702Z,76.06
2023-02-02T18:11:18.413Z,75.84
2023-02-02T18:13:47.547Z,75.99
2023-02-02T18:16:19.352Z,75.94
2023-02-02T18:18:48.637Z,75.61
2023-02-02T18:21:18.691Z,75.55
2023-02-02T18:23:49.264Z,75.66
2023-02-02T18:26:21.151Z,75.22
2023-02-02T18:28:51.277Z,75.81
2023-02-02T18:31:23.373Z,76.20
2023-02-02T18:33:54.066Z,76.29
2023-02-02T18:36:23.251Z,76.05
2023-02-02T18:38:54.288Z,75.67
2023-02-02T18:41:24.077Z,75.42
2023-02-02T18:43:56.322Z,74.91
2023-02-02T18:46:27.327Z,74.58
2023-02-02T18:48:56.785Z,74.50
2023-02-02T18:51:27.026Z,74.38
2023-02-02T18:53:59.927Z,74.13
2023-02-02T18:56:29.843Z,74.17
2023-02-02T18:58:59.928Z,74.63
2023-02-02T19:01:28.381Z,74.38
2023-02-02T19:03:58.008Z,74.22
2023-02-02T19:06:48.194Z,74.02
2023-02-02T19:09:16.999Z,73.08
2023-02-02T19:11:48.368Z,72.71
2023-02-02T19:14:18.900Z,72.61
2023-02-02T19:16:48.821Z,72.52
2023-02-02T19:19:24.737Z,72.13
2023-02-02T19:21:57.666Z,72.40
2023-02-02T19:24:34.186Z,72.44
2023-02-02T19:27:06.378Z,72.41
2023-02-02T19:29:38.385Z,73.13
2023-02-02T19:32:14.598Z,73.16
2023-02-02T19:34:44.522Z,73.31
2023-02-02T19:37:28.179Z,72.88
2023-02-02T19:40:16.343Z,72.46
2023-02-02T19:42:47.643Z,71.95
2023-02-02T19:45:23.029Z,71.73
2023-02-02T19:47:53.177Z,71.40
2023-02-02T19:50:26.078Z,71.29
2023-02-02T19:52:56.105Z,71.28
2023-02-02T19:55:27.618Z,71.21
2023-02-02T19:58:09.694Z,71.25
2023-02-02T20:00:40.650Z,71.50
2023-02-02T20:03:13.051Z,71.81
2023-02-02T20:05:44.481Z,71.97
2023-02-02T20:08:24.914Z,71.09
2023-02-02T20:10:55.652Z,71.47
2023-02-02T20:13:34.023Z,70.99
2023-02-02T20:16:04.760Z,70.66
2023-02-02T20:18:42.181Z,70.47
2023-02-02T20:21:22.822Z,70.79
2023-02-02T20:23:51.981Z,70.60
2023-02-02T20:26:27.975Z,70.88
2023-02-02T20:29:00.050Z,70.53
2023-02-02T20:31:37.079Z,70.52
2023-02-02T20:34:24.284Z,70.43
2023-02-02T20:36:57.893Z,70.72
2023-02-02T20:39:32.709Z,70.59
2023-02-02T20:42:02.848Z,71.20
2023-02-02T20:44:33.000Z,71.30
2023-02-02T20:47:01.889Z,71.65
2023-02-02T20:49:31.797Z,71.60
2023-02-02T20:52:07.319Z,71.29
2023-02-02T20:54:36.824Z,71.08
2023-02-02T20:57:06.826Z,71.16
2023-02-02T20:59:36.046Z,70.55
2023-02-02T21:02:05.792Z,70.76
2023-02-02T21:04:35.441Z,70.63
2023-02-02T21:07:04.859Z,70.23
2023-02-02T21:09:34.677Z,70.15
2023-02-02T21:12:03.875Z,69.96
2023-02-02T21:14:33.180Z,70.10
2023-02-02T21:17:14.027Z,70.21
2023-02-02T21:19:45.015Z,70.17
2023-02-02T21:22:13.940Z,70.66
2023-02-02T21:24:42.844Z,69.86
2023-02-02T21:27:13.130Z,69.37
2023-02-02T21:29:42.570Z,69.81
2023-02-02T21:32:12.384Z,70.08
2023-02-02T21:34:41.395Z,71.09
2023-02-02T21:37:14.382Z,71.35
2023-02-02T21:39:47.829Z,71.10
2023-02-02T21:42:19.478Z,70.30
2023-02-02T21:44:52.984Z,70.10
2023-02-02T21:47:29.106Z,70.18
2023-02-02T21:50:02.189Z,69.90
2023-02-02T21:52:34.930Z,69.01
2023-02-02T21:55:28.575Z,69.50
2023-02-02T21:58:00.825Z,68.15
2023-02-02T22:00:34.048Z,68.58
2023-02-02T22:03:03.290Z,68.81
2023-02-02T22:05:35.987Z,69.19
2023-02-02T22:08:21.088Z,68.62
2023-02-02T22:10:50.340Z,68.72
2023-02-02T22:13:21.724Z,68.25
2023-02-02T22:15:52.555Z,68.39
2023-02-02T22:18:24.837Z,68.52
2023-02-02T22:20:55.889Z,68.08
2023-02-02T22:23:27.302Z,68.17
2023-02-02T22:25:58.232Z,68.49
2023-02-02T22:28:32.395Z,68.22
2023-02-02T22:31:01.373Z,68.47
2023-02-02T22:33:30.796Z,68.50
2023-02-02T22:35:59.861Z,68.51
2023-02-02T22:38:29.409Z,68.60
2023-02-02T22:40:58.726Z,67.94
2023-02-02T22:43:27.999Z,68.23
2023-02-02T22:45:57.299Z,69.12
2023-02-02T22:48:26.860Z,70.42
2023-02-02T22:50:56.462Z,69.54
2023-02-02T22:53:25.742Z,70.14
2023-02-02T22:55:59.501Z,69.86
2023-02-02T22:58:28.689Z,70.11
2023-02-02T23:00:57.730Z,70.32
2023-02-02T23:03:27.103Z,70.72
2023-02-02T23:05:56.630Z,71.16
2023-02-02T23:08:25.852Z,71.09
2023-02-02T23:10:55.485Z,71.14
2023-02-02T23:13:25.058Z,70.93
2023-02-02T23:15:56.213Z,71.11
2023-02-02T23:18:25.784Z,71.45
2023-02-02T23:20:55.073Z,71.22
2023-02-02T23:23:24.103Z,71.26
2023-02-02T23:25:53.247Z,71.65
2023-02-02T23:28:22.365Z,71.71
2023-02-02T23:30:54.032Z,71.68
2023-02-02T23:33:23.131Z,71.81
2023-02-02T23:35:52.496Z,72.41
2023-02-02T23:38:21.854Z,73.01
2023-02-02T23:40:51.101Z,72.70
2023-02-02T23:43:20.119Z,72.76
2023-02-02T23:45:49.388Z,72.46
2023-02-02T23:48:19.100Z,72.42
2023-02-02T23:50:48.495Z,72.32
2023-02-02T23:53:17.667Z,72.50
2023-02-02T23:55:47.703Z,72.47
2023-02-02T23:58:18.458Z,72.34
